Time;durP1;ratioP1;P1;durP2;ratioP2;P2;SDS_P1;SDS_P2;PMS_P1;PMS_P2;Temp;Humidity;BMP_temperature;BMP_pressure;BME280_temperature;BME280_humidity;BME280_pressure;Samples;Min_cycle;Max_cycle;Signal;HPM_P1;HPM_P2
2021/07/17 00:00:34;;;;;;;55.30;25.57;;;;;;;15.81;nan;97160.47;3592402;39;20464;-71
2021/07/17 00:03:05;;;;;;;74.17;28.87;;;;;;;15.83;nan;97155.88;3583971;39;21153;-72
2021/07/17 00:05:33;;;;;;;55.27;28.50;;;;;;;15.83;nan;97155.88;3580412;39;20773;-71
2021/07/17 00:08:01;;;;;;;63.20;28.43;;;;;;;15.82;nan;97162.97;3592340;39;20527;-71
2021/07/17 00:10:36;;;;;;;64.73;29.50;;;;;;;15.90;nan;97165.00;3591737;39;20795;-72
2021/07/17 00:13:06;;;;;;;55.23;30.07;;;;;;;15.81;nan;97169.22;3589961;39;20559;-72
2021/07/17 00:15:35;;;;;;;46.43;27.27;;;;;;;16.01;nan;97164.97;3593162;39;20530;-74
2021/07/17 00:18:04;;;;;;;52.60;28.80;;;;;;;15.78;nan;97164.19;3590473;39;21234;-72
2021/07/17 00:20:33;;;;;;;52.50;27.30;;;;;;;15.77;nan;97154.59;3590033;39;20473;-73
2021/07/17 00:23:01;;;;;;;57.50;27.47;;;;;;;15.95;nan;97164.63;3591502;39;20927;-73
2021/07/17 00:25:32;;;;;;;52.13;27.63;;;;;;;15.83;nan;97153.25;3591080;39;20616;-73
2021/07/17 00:28:00;;;;;;;60.83;28.00;;;;;;;15.77;nan;97166.97;3593609;39;20456;-74
2021/07/17 00:30:28;;;;;;;58.03;27.63;;;;;;;15.88;nan;97161.66;3591695;39;20791;-73
2021/07/17 00:32:56;;;;;;;55.93;28.53;;;;;;;15.79;nan;97154.47;3592560;39;20503;-74
2021/07/17 00:35:25;;;;;;;53.47;28.83;;;;;;;15.74;nan;97156.63;3590572;39;20484;-72
2021/07/17 00:37:53;;;;;;;61.40;28.73;;;;;;;15.81;nan;97155.19;3590150;39;20432;-73
2021/07/17 00:40:21;;;;;;;59.47;27.87;;;;;;;15.83;nan;97142.69;3592861;39;20831;-72
2021/07/17 00:42:50;;;;;;;54.80;28.60;;;;;;;15.88;nan;97156.38;3592407;39;20483;-72
2021/07/17 00:45:20;;;;;;;53.30;26.73;;;;;;;15.86;nan;97145.09;3583350;39;20560;-73
2021/07/17 00:47:49;;;;;;;51.53;27.63;;;;;;;15.86;nan;97150.38;3591490;39;20546;-72
2021/07/17 00:50:19;;;;;;;52.73;26.50;;;;;;;15.80;nan;97146.44;3591554;39;20547;-74
2021/07/17 00:52:49;;;;;;;49.03;28.00;;;;;;;15.80;nan;97137.69;3592497;39;20883;-73
2021/07/17 00:55:20;;;;;;;64.07;29.67;;;;;;;15.75;nan;97139.84;3585463;39;20657;-74
2021/07/17 00:57:50;;;;;;;52.90;29.57;;;;;;;15.70;nan;97142.84;3591785;39;20468;-72
2021/07/17 01:00:18;;;;;;;56.13;28.60;;;;;;;15.65;nan;97130.97;3592038;39;20528;-74
2021/07/17 01:02:48;;;;;;;59.53;29.20;;;;;;;15.59;nan;97138.41;3591784;39;20441;-72
2021/07/17 01:05:17;;;;;;;64.20;29.47;;;;;;;15.56;nan;97133.38;3593402;39;21025;-72
2021/07/17 01:07:45;;;;;;;56.07;29.30;;;;;;;15.44;nan;97134.34;3593099;39;20482;-73
2021/07/17 01:10:17;;;;;;;54.40;29.40;;;;;;;15.61;nan;97119.81;3593179;39;20444;-71
2021/07/17 01:12:46;;;;;;;61.87;29.90;;;;;;;15.59;nan;97127.00;3592499;39;20452;-71
2021/07/17 01:15:14;;;;;;;59.97;28.63;;;;;;;15.63;nan;97118.72;3591687;39;20892;-73
2021/07/17 01:17:42;;;;;;;51.20;27.47;;;;;;;15.55;nan;97128.22;3594288;39;20840;-71
2021/07/17 01:20:12;;;;;;;48.60;26.87;;;;;;;15.59;nan;97141.03;3593313;39;20473;-72
2021/07/17 01:22:43;;;;;;;51.00;26.47;;;;;;;15.62;nan;97124.09;3594536;39;20534;-74
2021/07/17 01:25:14;;;;;;;51.07;26.80;;;;;;;15.65;nan;97129.16;3591331;39;21078;-73
2021/07/17 01:27:42;;;;;;;56.00;26.80;;;;;;;15.61;nan;97120.63;3591941;39;20709;-72
2021/07/17 01:30:12;;;;;;;48.70;27.80;;;;;;;15.66;nan;97125.56;3583434;39;20592;-73
2021/07/17 01:32:40;;;;;;;56.73;28.77;;;;;;;15.21;nan;97108.00;3592452;39;20472;-74
2021/07/17 01:35:08;;;;;;;52.53;25.90;;;;;;;15.46;nan;97129.78;3592290;39;20451;-71
2021/07/17 01:37:37;;;;;;;52.73;25.63;;;;;;;15.74;nan;97130.22;3581696;39;20488;-74
2021/07/17 01:40:10;;;;;;;52.10;26.03;;;;;;;15.65;nan;97130.97;3592416;39;20494;-73
2021/07/17 01:42:39;;;;;;;48.13;25.50;;;;;;;15.61;nan;97131.19;3595306;39;20487;-74
2021/07/17 01:45:08;;;;;;;46.57;27.37;;;;;;;15.70;nan;97128.78;3591641;39;20870;-74
2021/07/17 01:47:36;;;;;;;58.97;27.57;;;;;;;15.60;nan;97137.47;3590879;39;20914;-74
2021/07/17 01:50:06;;;;;;;60.70;26.50;;;;;;;15.63;nan;97131.91;3590934;39;20467;-72
2021/07/17 01:52:34;;;;;;;52.87;28.00;;;;;;;15.63;nan;97129.28;3591036;39;20568;-73
2021/07/17 01:55:02;;;;;;;54.70;28.10;;;;;;;15.59;nan;97132.28;3593908;39;20448;-73
2021/07/17 01:57:31;;;;;;;47.47;26.83;;;;;;;15.61;nan;97136.47;3591225;39;20861;-73
2021/07/17 01:59:59;;;;;;;51.00;28.07;;;;;;;15.49;nan;97137.47;3592536;39;20774;-74
2021/07/17 02:02:40;;;;;;;57.10;28.10;;;;;;;15.55;nan;97136.97;3548000;40;20516;-74
2021/07/17 02:05:09;;;;;;;48.27;27.53;;;;;;;15.41;nan;97140.72;3548826;40;20926;-74
2021/07/17 02:07:37;;;;;;;52.47;28.00;;;;;;;15.47;nan;97133.28;3542323;40;20866;-73
2021/07/17 02:10:07;;;;;;;57.47;27.97;;;;;;;15.58;nan;97131.47;3549862;40;20860;-72
2021/07/17 02:12:37;;;;;;;52.20;27.93;;;;;;;15.59;nan;97122.56;3551728;40;20499;-72
2021/07/17 02:15:06;;;;;;;66.07;30.27;;;;;;;15.48;nan;97129.66;3548305;40;20514;-75
2021/07/17 02:17:35;;;;;;;51.50;27.30;;;;;;;15.26;nan;97128.75;3549695;40;20864;-74
2021/07/17 02:20:05;;;;;;;47.20;27.90;;;;;;;15.43;nan;97127.41;3550478;40;20718;-76
2021/07/17 02:22:33;;;;;;;53.50;27.83;;;;;;;15.50;nan;97118.03;3548995;40;20476;-71
2021/07/17 02:25:01;;;;;;;58.70;28.80;;;;;;;15.49;nan;97112.88;3547470;40;20792;-72
2021/07/17 02:27:29;;;;;;;52.73;29.50;;;;;;;15.52;nan;97118.72;3548373;40;20502;-76
2021/07/17 02:29:58;;;;;;;61.27;28.83;;;;;;;15.45;nan;97125.47;3547902;40;20494;-73
2021/07/17 02:32:26;;;;;;;59.63;29.07;;;;;;;15.35;nan;97127.19;3550854;40;20802;-76
2021/07/17 02:34:54;;;;;;;53.97;29.87;;;;;;;15.48;nan;97119.13;3551460;40;20504;-74
2021/07/17 02:37:22;;;;;;;58.00;29.87;;;;;;;15.50;nan;97115.38;3551068;40;20767;-73
2021/07/17 02:39:51;;;;;;;60.83;31.83;;;;;;;15.54;nan;97121.25;3566344;39;20459;-73
2021/07/17 02:42:19;;;;;;;49.90;28.60;;;;;;;15.38;nan;97113.72;3595010;39;20481;-73
2021/07/17 02:44:47;;;;;;;54.03;29.73;;;;;;;15.43;nan;97122.13;3584468;39;20770;-74
2021/07/17 02:47:17;;;;;;;61.27;29.73;;;;;;;15.25;nan;97124.44;3593141;39;20847;-74
2021/07/17 02:49:45;;;;;;;55.37;28.37;;;;;;;15.49;nan;97123.44;3582584;39;21206;-74
2021/07/17 02:52:13;;;;;;;55.07;30.20;;;;;;;15.42;nan;97123.06;3591827;39;20500;-73
2021/07/17 02:54:41;;;;;;;59.40;30.40;;;;;;;15.34;nan;97112.31;3593367;39;20444;-73
2021/07/17 02:57:09;;;;;;;73.20;30.40;;;;;;;15.36;nan;97103.28;3593445;39;20754;-73
2021/07/17 02:59:37;;;;;;;59.43;29.20;;;;;;;15.37;nan;97115.53;3593268;39;20553;-73
2021/07/17 03:02:05;;;;;;;64.50;31.63;;;;;;;15.32;nan;97125.63;3593835;39;20435;-72
2021/07/17 03:04:35;;;;;;;53.93;29.37;;;;;;;15.33;nan;97122.03;3591939;39;20828;-74
2021/07/17 03:07:03;;;;;;;71.17;31.30;;;;;;;15.28;nan;97118.06;3593260;39;21022;-74
2021/07/17 03:09:31;;;;;;;54.03;30.83;;;;;;;15.27;nan;97113.75;3592301;39;20946;-74
2021/07/17 03:11:59;;;;;;;58.00;30.73;;;;;;;15.15;nan;97113.78;3591522;39;20746;-73
2021/07/17 03:14:30;;;;;;;62.47;30.13;;;;;;;15.28;nan;97123.34;3590680;39;20456;-74
2021/07/17 03:17:00;;;;;;;63.97;32.63;;;;;;;15.09;nan;97116.88;3589518;39;20492;-75
2021/07/17 03:19:28;;;;;;;64.63;30.63;;;;;;;15.19;nan;97119.63;3591078;39;20850;-76
2021/07/17 03:21:58;;;;;;;68.33;33.90;;;;;;;15.17;nan;97122.41;3593042;39;20463;-75
2021/07/17 03:24:26;;;;;;;55.47;30.10;;;;;;;15.06;nan;97121.59;3592500;39;20831;-73
2021/07/17 03:26:54;;;;;;;80.13;31.47;;;;;;;15.09;nan;97119.50;3585535;39;21131;-75
2021/07/17 03:29:22;;;;;;;73.40;33.67;;;;;;;15.18;nan;97123.25;3591329;39;20914;-73
2021/07/17 03:31:50;;;;;;;68.60;33.53;;;;;;;15.21;nan;97121.22;3594631;39;20451;-74
2021/07/17 03:34:18;;;;;;;72.10;33.20;;;;;;;15.30;nan;97121.44;3592720;39;20832;-73
2021/07/17 03:36:46;;;;;;;69.07;34.40;;;;;;;15.05;nan;97117.25;3589616;39;20863;-73
2021/07/17 03:39:15;;;;;;;75.50;31.73;;;;;;;15.01;nan;97127.19;3582772;39;21101;-73
2021/07/17 03:41:43;;;;;;;55.93;29.37;;;;;;;15.10;nan;97125.66;3581986;39;20568;-73
2021/07/17 03:44:11;;;;;;;61.30;31.27;;;;;;;15.28;nan;97123.34;3592544;39;20839;-73
2021/07/17 03:46:39;;;;;;;55.47;32.13;;;;;;;15.29;nan;97125.00;3584035;39;21023;-73
2021/07/17 03:49:07;;;;;;;64.40;31.23;;;;;;;15.21;nan;97113.28;3593837;39;20435;-74
2021/07/17 03:51:35;;;;;;;60.37;32.70;;;;;;;15.24;nan;97120.13;3581454;39;20967;-74
2021/07/17 03:54:03;;;;;;;74.47;32.77;;;;;;;15.27;nan;97127.81;3591467;39;20544;-75
2021/07/17 03:56:32;;;;;;;78.80;32.67;;;;;;;15.31;nan;97128.38;3592964;39;20467;-73
2021/07/17 03:59:00;;;;;;;60.03;29.80;;;;;;;15.29;nan;97117.09;3593148;39;20524;-74
2021/07/17 04:01:28;;;;;;;53.90;29.47;;;;;;;15.18;nan;97124.06;3591424;39;20746;-73
2021/07/17 04:03:56;;;;;;;70.47;32.30;;;;;;;15.01;nan;97129.84;3592780;39;20866;-73
2021/07/17 04:06:24;;;;;;;76.43;31.57;;;;;;;15.11;nan;97128.19;3592188;39;20894;-72
2021/07/17 04:08:52;;;;;;;72.53;31.83;;;;;;;15.12;nan;97124.56;3590180;39;20829;-73
2021/07/17 04:11:20;;;;;;;60.20;31.67;;;;;;;15.26;nan;97136.66;3586420;39;20465;-72
2021/07/17 04:13:49;;;;;;;60.87;30.47;;;;;;;15.15;nan;97129.59;3594638;39;20447;-74
2021/07/17 04:16:17;;;;;;;52.20;28.00;;;;;;;15.29;nan;97133.78;3592265;39;20704;-72
2021/07/17 04:18:45;;;;;;;62.97;30.40;;;;;;;15.25;nan;97135.00;3590369;39;20495;-71
2021/07/17 04:21:13;;;;;;;65.90;29.13;;;;;;;15.20;nan;97132.69;3582884;39;20890;-72
2021/07/17 04:23:41;;;;;;;52.50;29.30;;;;;;;15.28;nan;97139.19;3584306;39;20855;-74
2021/07/17 04:26:09;;;;;;;66.43;30.70;;;;;;;15.17;nan;97145.28;3592237;39;20863;-72
2021/07/17 04:28:37;;;;;;;58.40;29.80;;;;;;;15.12;nan;97145.66;3593047;39;20817;-75
2021/07/17 04:31:07;;;;;;;52.13;28.57;;;;;;;15.26;nan;97146.38;3593664;39;20822;-74
2021/07/17 04:33:35;;;;;;;59.93;27.20;;;;;;;15.37;nan;97139.28;3582002;39;20906;-74
2021/07/17 04:36:03;;;;;;;57.00;27.57;;;;;;;15.46;nan;97148.25;3592492;39;20447;-76
2021/07/17 04:38:31;;;;;;;50.80;27.00;;;;;;;15.51;nan;97148.75;3593233;39;20445;-76
2021/07/17 04:40:58;;;;;;;50.10;27.60;;;;;;;15.57;nan;97145.59;3592606;39;20904;-76
2021/07/17 04:43:26;;;;;;;53.90;26.40;;;;;;;15.60;nan;97142.75;3592149;39;20437;-74
2021/07/17 04:45:57;;;;;;;54.03;26.60;;;;;;;15.42;nan;97152.09;3584832;39;20455;-74
2021/07/17 04:48:26;;;;;;;50.20;25.80;;;;;;;15.44;nan;97158.09;3592394;39;20820;-76
2021/07/17 04:50:54;;;;;;;40.90;24.00;;;;;;;15.32;nan;97157.28;3591181;39;20856;-72
2021/07/17 04:53:22;;;;;;;46.23;25.93;;;;;;;15.49;nan;97163.88;3592432;39;20544;-74
2021/07/17 04:55:50;;;;;;;50.03;25.57;;;;;;;15.36;nan;97155.25;3580908;39;20455;-72
2021/07/17 04:58:18;;;;;;;43.50;24.77;;;;;;;15.34;nan;97155.34;3593555;39;20817;-75
2021/07/17 05:00:46;;;;;;;41.80;22.70;;;;;;;15.48;nan;97161.34;3583179;39;20757;-74
2021/07/17 05:03:14;;;;;;;49.27;23.97;;;;;;;15.59;nan;97164.81;3591670;39;20456;-73
2021/07/17 05:05:43;;;;;;;44.97;24.57;;;;;;;15.73;nan;97160.25;3589580;39;20851;-73
2021/07/17 05:08:11;;;;;;;58.87;25.00;;;;;;;15.70;nan;97149.88;3592177;39;20761;-73
2021/07/17 05:10:39;;;;;;;41.20;23.70;;;;;;;15.70;nan;97144.63;3592737;39;20848;-73
2021/07/17 05:13:12;;;;;;;46.10;24.60;;;;;;;15.74;nan;97152.22;3593265;39;20509;-75
2021/07/17 05:15:40;;;;;;;43.23;23.57;;;;;;;15.88;nan;97152.91;3591527;39;20713;-76
2021/07/17 05:18:11;;;;;;;50.90;21.90;;;;;;;15.93;nan;97154.16;3594664;39;20697;-73
2021/07/17 05:20:40;;;;;;;45.53;21.70;;;;;;;15.92;nan;97155.16;3592597;39;20464;-74
2021/07/17 05:23:10;;;;;;;45.90;24.27;;;;;;;15.88;nan;97163.47;3596362;39;20435;-73
2021/07/17 05:25:39;;;;;;;52.53;25.37;;;;;;;15.71;nan;97146.31;3582591;39;20467;-74
2021/07/17 05:28:07;;;;;;;54.20;24.87;;;;;;;15.73;nan;97150.53;3583181;39;20793;-74
2021/07/17 05:30:35;;;;;;;39.63;22.50;;;;;;;15.82;nan;97155.06;3581524;39;20905;-74
2021/07/17 05:33:03;;;;;;;45.73;23.17;;;;;;;15.71;nan;97157.69;3590977;39;20805;-73
2021/07/17 05:35:31;;;;;;;48.93;23.17;;;;;;;15.83;nan;97158.53;3593604;39;20460;-75
2021/07/17 05:38:00;;;;;;;44.80;25.60;;;;;;;15.80;nan;97156.16;3592964;39;20825;-74
2021/07/17 05:40:29;;;;;;;50.40;23.17;;;;;;;15.82;nan;97148.94;3592412;39;20817;-76
2021/07/17 05:42:57;;;;;;;44.27;23.30;;;;;;;15.99;nan;97155.47;3587298;39;20481;-74
2021/07/17 05:45:28;;;;;;;51.77;24.50;;;;;;;15.68;nan;97133.34;3597503;39;20669;-77
2021/07/17 05:47:57;;;;;;;47.90;24.23;;;;;;;15.90;nan;97151.81;3599451;39;20481;-73
2021/07/17 05:50:24;;;;;;;46.93;24.30;;;;;;;15.92;nan;97160.44;3591669;39;20815;-72
2021/07/17 05:52:52;;;;;;;45.43;23.27;;;;;;;15.95;nan;97159.34;3591008;39;20464;-75
2021/07/17 05:55:20;;;;;;;51.57;24.63;;;;;;;15.95;nan;97154.88;3591514;39;21021;-72
2021/07/17 05:57:49;;;;;;;40.03;24.50;;;;;;;16.07;nan;97157.50;3590066;39;20828;-74
2021/07/17 06:00:20;;;;;;;48.30;25.07;;;;;;;16.28;nan;97165.47;3591957;39;20452;-74
2021/07/17 06:02:48;;;;;;;43.87;25.27;;;;;;;16.21;nan;97157.22;3583326;39;20563;-74
2021/07/17 06:05:16;;;;;;;47.47;23.73;;;;;;;16.29;nan;97157.41;3591396;39;20828;-74
2021/07/17 06:07:44;;;;;;;47.07;23.70;;;;;;;16.36;nan;97152.44;3592434;39;20781;-75
2021/07/17 06:10:12;;;;;;;45.43;25.07;;;;;;;16.17;nan;97167.19;3593294;39;20728;-72
2021/07/17 06:12:40;;;;;;;44.10;22.60;;;;;;;16.09;nan;97163.50;3593093;39;20432;-72
2021/07/17 06:15:10;;;;;;;45.07;23.07;;;;;;;16.21;nan;97165.13;3591512;39;20742;-76
2021/07/17 06:17:38;;;;;;;50.13;23.73;;;;;;;16.12;nan;97165.88;3592318;39;20888;-73
2021/07/17 06:20:07;;;;;;;52.13;25.10;;;;;;;16.27;nan;97169.06;3591991;39;20543;-72
2021/07/17 06:22:35;;;;;;;48.50;24.40;;;;;;;16.11;nan;97159.78;3592700;39;20521;-73
2021/07/17 06:25:04;;;;;;;50.63;26.00;;;;;;;16.33;nan;97171.22;3592046;39;20791;-76
2021/07/17 06:27:32;;;;;;;52.13;23.37;;;;;;;16.31;nan;97163.41;3594983;39;20463;-75
2021/07/17 06:30:00;;;;;;;47.20;24.23;;;;;;;16.51;nan;97176.75;3592425;39;20805;-74
2021/07/17 06:32:29;;;;;;;48.80;24.60;;;;;;;16.52;nan;97178.44;3592877;39;20423;-74
2021/07/17 06:34:57;;;;;;;47.83;24.30;;;;;;;16.27;nan;97176.97;3593277;39;20502;-73
2021/07/17 06:37:25;;;;;;;49.30;25.57;;;;;;;16.28;nan;97173.38;3582879;39;20781;-71
2021/07/17 06:39:53;;;;;;;42.70;22.80;;;;;;;16.47;nan;97173.53;3581665;39;20728;-75
2021/07/17 06:42:21;;;;;;;42.53;24.23;;;;;;;16.53;nan;97177.47;3583415;39;20767;-71
2021/07/17 06:44:49;;;;;;;156.23;84.83;;;;;;;16.64;nan;97188.00;3592685;39;20460;-71
2021/07/17 06:47:21;;;;;;;52.57;25.63;;;;;;;16.40;nan;97191.69;3593556;39;20464;-74
2021/07/17 06:49:50;;;;;;;44.50;25.17;;;;;;;16.57;nan;97198.22;3592933;39;20480;-73
2021/07/17 06:52:18;;;;;;;46.90;25.80;;;;;;;16.41;nan;97198.66;3592666;39;20555;-74
2021/07/17 06:54:46;;;;;;;44.77;23.40;;;;;;;16.43;nan;97201.19;3591431;39;20474;-72
2021/07/17 06:57:13;;;;;;;60.23;27.37;;;;;;;16.31;nan;97200.41;3593431;39;20552;-74
2021/07/17 06:59:41;;;;;;;53.43;26.17;;;;;;;16.19;nan;97198.75;3584631;39;20451;-75
2021/07/17 07:02:09;;;;;;;46.07;24.80;;;;;;;16.27;nan;97198.13;3591566;39;20755;-74
2021/07/17 07:04:38;;;;;;;54.67;26.00;;;;;;;16.28;nan;97198.00;3592981;39;20755;-73
2021/07/17 07:07:07;;;;;;;54.43;26.77;;;;;;;16.45;nan;97204.53;3592659;39;20847;-74
2021/07/17 07:09:35;;;;;;;60.97;25.97;;;;;;;16.54;nan;97209.06;3590957;39;21230;-75
2021/07/17 07:12:04;;;;;;;54.77;28.43;;;;;;;16.49;nan;97207.78;3591887;39;20439;-73
2021/07/17 07:14:32;;;;;;;52.13;27.30;;;;;;;16.54;nan;97205.56;3592774;39;20459;-72
2021/07/17 07:17:00;;;;;;;56.53;27.07;;;;;;;16.46;nan;97206.19;3592340;39;21106;-71
2021/07/17 07:19:28;;;;;;;56.80;24.70;;;;;;;16.64;nan;97201.22;3591109;39;20443;-73
2021/07/17 07:21:56;;;;;;;50.33;25.10;;;;;;;16.60;nan;97200.63;3590442;39;20545;-75
2021/07/17 07:24:26;;;;;;;47.00;25.27;;;;;;;16.66;nan;97199.28;3589860;39;20494;-73
2021/07/17 07:26:53;;;;;;;47.33;24.37;;;;;;;16.54;nan;97189.72;3591818;39;20907;-75
2021/07/17 07:29:21;;;;;;;45.10;24.80;;;;;;;16.76;nan;97181.66;3592995;39;20743;-73
2021/07/17 07:31:49;;;;;;;71.73;26.30;;;;;;;16.96;nan;97201.16;3591071;39;20529;-72
2021/07/17 07:34:20;;;;;;;44.37;25.10;;;;;;;16.92;nan;97197.09;3592765;39;20770;-72
2021/07/17 07:36:48;;;;;;;52.80;23.97;;;;;;;17.11;nan;97191.06;3594713;39;20460;-73
2021/07/17 07:39:16;;;;;;;43.33;23.87;;;;;;;17.04;nan;97195.22;3594470;39;20711;-71
2021/07/17 07:41:45;;;;;;;45.13;21.80;;;;;;;17.02;nan;97197.16;3595971;39;20443;-71
2021/07/17 07:44:13;;;;;;;46.83;23.33;;;;;;;16.96;nan;97195.88;3588182;39;20794;-74
2021/07/17 07:46:41;;;;;;;47.40;22.53;;;;;;;16.90;nan;97200.84;3593848;39;20448;-72
2021/07/17 07:49:10;;;;;;;42.17;22.77;;;;;;;17.00;nan;97202.56;3596633;39;20486;-71
2021/07/17 07:51:38;;;;;;;45.10;24.20;;;;;;;17.12;nan;97198.03;3592030;39;21246;-75
2021/07/17 07:54:06;;;;;;;46.10;21.97;;;;;;;17.22;nan;97205.19;3597066;39;20753;-71
2021/07/17 07:56:34;;;;;;;50.23;23.33;;;;;;;17.36;nan;97213.59;3593479;39;20572;-74
2021/07/17 07:59:03;;;;;;;35.40;20.73;;;;;;;17.44;nan;97201.50;3593964;39;20446;-74
2021/07/17 08:01:31;;;;;;;38.03;21.43;;;;;;;17.69;nan;97200.19;3585293;39;20907;-71
2021/07/17 08:04:00;;;;;;;43.83;22.17;;;;;;;17.36;nan;97199.53;3594817;39;20870;-73
2021/07/17 08:06:28;;;;;;;47.67;22.40;;;;;;;17.52;nan;97201.66;3593768;39;20555;-72
2021/07/17 08:08:55;;;;;;;43.83;20.80;;;;;;;17.52;nan;97199.03;3594195;39;20763;-72
2021/07/17 08:11:24;;;;;;;39.47;19.20;;;;;;;17.59;nan;97211.59;3583230;39;20455;-73
2021/07/17 08:13:51;;;;;;;34.53;19.30;;;;;;;17.73;nan;97210.38;3584849;39;20476;-75
2021/07/17 08:16:21;;;;;;;43.37;20.47;;;;;;;17.86;nan;97210.19;3597664;39;21074;-71
2021/07/17 08:18:49;;;;;;;33.20;18.43;;;;;;;17.74;nan;97208.59;3593873;39;20743;-73
2021/07/17 08:21:17;;;;;;;39.80;18.00;;;;;;;17.79;nan;97204.53;3584435;39;20575;-74
2021/07/17 08:23:45;;;;;;;36.60;18.13;;;;;;;18.00;nan;97203.66;3596365;39;20455;-72
2021/07/17 08:26:13;;;;;;;41.20;17.50;;;;;;;18.11;nan;97200.88;3591887;39;20901;-74
2021/07/17 08:28:41;;;;;;;39.30;19.20;;;;;;;17.99;nan;97201.94;3593980;39;20531;-72
2021/07/17 08:31:10;;;;;;;31.97;18.20;;;;;;;17.97;nan;97204.78;3593609;39;20467;-73
2021/07/17 08:33:39;;;;;;;42.43;18.60;;;;;;;18.19;nan;97202.84;3596014;39;20423;-73
2021/07/17 08:36:07;;;;;;;36.23;17.93;;;;;;;18.10;nan;97193.88;3592874;39;20862;-72
2021/07/17 08:38:37;;;;;;;35.50;17.97;;;;;;;17.93;nan;97198.03;3583423;39;20759;-72
2021/07/17 08:41:09;;;;;;;37.40;19.30;;;;;;;18.22;nan;97202.53;3594336;39;20466;-72
2021/07/17 08:43:39;;;;;;;31.13;17.93;;;;;;;18.05;nan;97204.06;3595715;39;20668;-73
2021/07/17 08:46:07;;;;;;;40.20;17.90;;;;;;;18.06;nan;97213.69;3591115;39;20580;-72
2021/07/17 08:48:36;;;;;;;39.20;17.70;;;;;;;18.37;nan;97209.13;3591805;39;20444;-72
2021/07/17 08:51:06;;;;;;;39.23;17.10;;;;;;;18.26;nan;97213.72;3591850;39;20851;-71
2021/07/17 08:53:35;;;;;;;33.20;16.60;;;;;;;18.31;nan;97212.31;3594389;39;20464;-71
2021/07/17 08:56:03;;;;;;;35.40;17.63;;;;;;;18.08;nan;97218.84;3591816;39;20579;-70
2021/07/17 08:58:31;;;;;;;31.60;16.20;;;;;;;17.92;nan;97212.28;3593511;39;20436;-71
2021/07/17 09:01:00;;;;;;;27.60;15.87;;;;;;;17.78;nan;97212.63;3591970;39;20914;-74
2021/07/17 09:03:28;;;;;;;35.73;16.87;;;;;;;18.10;nan;97199.19;3590610;39;20858;-71
2021/07/17 09:05:57;;;;;;;34.50;17.17;;;;;;;18.45;nan;97199.63;3593019;39;20456;-74
2021/07/17 09:08:26;;;;;;;37.90;18.30;;;;;;;18.47;nan;97210.94;3593215;39;20828;-72
2021/07/17 09:10:56;;;;;;;34.23;16.40;;;;;;;18.33;nan;97210.38;3592029;39;20458;-72
2021/07/17 09:13:25;;;;;;;38.83;17.63;;;;;;;18.30;nan;97215.94;3592206;39;20545;-70
2021/07/17 09:15:56;;;;;;;30.47;16.10;;;;;;;18.41;nan;97200.91;3593061;39;20522;-73
2021/07/17 09:18:32;;;;;;;34.53;16.13;;;;;;;18.08;nan;97208.25;3593957;39;20547;-74
2021/07/17 09:21:04;;;;;;;26.70;14.90;;;;;;;18.30;nan;97207.97;3593179;39;20509;-72
2021/07/17 09:23:35;;;;;;;35.37;16.63;;;;;;;18.20;nan;97209.81;3581694;39;20464;-73
2021/07/17 09:26:14;;;;;;;39.00;17.10;;;;;;;18.30;nan;97209.81;3591168;39;20571;-73
2021/07/17 09:28:42;;;;;;;26.87;16.30;;;;;;;18.17;nan;97202.97;3593330;39;21085;-72
2021/07/17 09:31:10;;;;;;;46.67;17.40;;;;;;;18.18;nan;97204.63;3591247;39;20895;-72
2021/07/17 09:33:38;;;;;;;37.73;17.40;;;;;;;18.13;nan;97198.94;3591903;39;20494;-73
2021/07/17 09:36:06;;;;;;;37.00;17.30;;;;;;;18.02;nan;97190.25;3591839;39;20906;-73
2021/07/17 09:38:35;;;;;;;34.57;18.00;;;;;;;17.79;nan;97191.28;3593749;39;20751;-72
2021/07/17 09:41:07;;;;;;;34.53;18.07;;;;;;;17.99;nan;97186.06;3592402;39;20828;-75
2021/07/17 09:43:38;;;;;;;39.63;18.57;;;;;;;18.20;nan;97188.59;3583675;39;20575;-76
2021/07/17 09:46:22;;;;;;;37.63;19.40;;;;;;;18.01;nan;97200.00;3593026;39;20839;-73
2021/07/17 09:48:53;;;;;;;32.33;17.37;;;;;;;18.13;nan;97188.31;3592610;39;20716;-71
2021/07/17 09:51:24;;;;;;;28.23;17.70;;;;;;;18.22;nan;97191.94;3581469;39;20743;-71
2021/07/17 09:53:54;;;;;;;35.67;17.30;;;;;;;18.61;nan;97193.75;3583256;39;20813;-73
2021/07/17 09:56:24;;;;;;;39.20;19.10;;;;;;;18.76;nan;97184.38;3585513;39;21099;-71
2021/07/17 09:58:54;;;;;;;41.10;18.13;;;;;;;18.86;nan;97182.56;3580327;39;21108;-72
2021/07/17 10:01:29;;;;;;;46.50;18.13;;;;;;;19.17;nan;97177.88;3580644;39;20904;-72
2021/07/17 10:04:05;;;;;;;33.00;18.20;;;;;;;19.94;nan;97178.47;3581390;39;20443;-73
2021/07/17 10:06:40;;;;;;;35.97;18.87;;;;;;;19.87;nan;97174.75;3582572;39;20449;-73
2021/07/17 10:09:24;;;;;;;33.47;16.17;;;;;;;19.44;nan;97168.25;3580806;39;20541;-72
2021/07/17 10:11:54;;;;;;;33.43;16.80;;;;;;;19.31;nan;97173.91;3583986;39;20441;-72
2021/07/17 10:14:24;;;;;;;29.07;16.90;;;;;;;19.07;nan;97177.06;3581334;39;20429;-71
2021/07/17 10:16:55;;;;;;;33.27;17.50;;;;;;;19.05;nan;97178.19;3584411;39;20486;-71
2021/07/17 10:19:24;;;;;;;33.80;16.90;;;;;;;18.85;nan;97183.53;3579794;39;21150;-71
2021/07/17 10:21:53;;;;;;;29.40;19.00;;;;;;;18.57;nan;97182.59;3585201;39;20844;-76
2021/07/17 10:24:23;;;;;;;28.97;17.90;;;;;;;18.63;nan;97179.38;3582249;39;20444;-70
2021/07/17 10:26:53;;;;;;;32.03;18.93;;;;;;;18.72;nan;97188.31;3581318;39;20857;-72
2021/07/17 10:29:24;;;;;;;34.70;19.37;;;;;;;18.88;nan;97174.47;3583953;39;20441;-74
2021/07/17 10:31:52;;;;;;;31.20;17.63;;;;;;;19.10;nan;97173.28;3584018;39;20524;-72
2021/07/17 10:34:21;;;;;;;32.47;17.80;;;;;;;19.13;nan;97170.31;3583794;39;20778;-73
2021/07/17 10:36:57;;;;;;;29.17;17.90;;;;;;;19.02;nan;97162.56;3582227;39;21386;-73
2021/07/17 10:39:30;;;;;;;29.27;18.27;;;;;;;19.03;nan;97159.75;3581179;39;20505;-76
2021/07/17 10:42:00;;;;;;;30.50;18.07;;;;;;;18.91;nan;97166.22;3582576;39;20673;-70
2021/07/17 10:44:39;;;;;;;33.73;18.27;;;;;;;18.99;nan;97174.28;3580139;39;20448;-73
2021/07/17 10:47:08;;;;;;;41.70;17.60;;;;;;;19.23;nan;97164.97;3584639;39;20533;-71
2021/07/17 10:49:39;;;;;;;28.30;15.90;;;;;;;19.04;nan;97158.78;3582778;39;20487;-72
2021/07/17 10:52:08;;;;;;;28.80;16.63;;;;;;;19.10;nan;97158.19;3591053;39;20863;-72
2021/07/17 10:54:38;;;;;;;34.90;16.73;;;;;;;18.99;nan;97158.34;3593280;39;20535;-73
2021/07/17 10:57:07;;;;;;;28.03;16.00;;;;;;;18.89;nan;97150.44;3592383;39;20510;-72
2021/07/17 10:59:42;;;;;;;34.73;17.57;;;;;;;18.84;nan;97146.56;3582781;39;20740;-70
2021/07/17 11:02:15;;;;;;;27.10;15.53;;;;;;;18.62;nan;97150.31;3593720;39;20458;-72
2021/07/17 11:04:55;;;;;;;27.97;16.77;;;;;;;18.84;nan;97149.22;3592067;39;20788;-71
2021/07/17 11:07:35;;;;;;;25.07;15.43;;;;;;;19.14;nan;97150.78;3591299;39;20761;-71
2021/07/17 11:10:14;;;;;;;31.73;14.70;;;;;;;19.39;nan;97148.44;3589665;39;20894;-74
2021/07/17 11:12:50;;;;;;;30.97;15.90;;;;;;;19.64;nan;97147.75;3592037;39;20788;-71
2021/07/17 11:15:50;;;;;;;33.33;16.47;;;;;;;19.61;nan;97152.53;3591303;39;20466;-72
2021/07/17 11:18:32;;;;;;;23.07;14.50;;;;;;;19.63;nan;97163.84;3590908;39;20459;-72
2021/07/17 11:21:03;;;;;;;25.47;15.30;;;;;;;19.55;nan;97160.09;3591781;39;20900;-72
2021/07/17 11:23:38;;;;;;;26.30;16.13;;;;;;;19.08;nan;97168.13;3592865;39;20528;-72
2021/07/17 11:26:10;;;;;;;21.00;16.00;;;;;;;18.85;nan;97158.84;3591912;39;20756;-74
2021/07/17 11:28:57;;;;;;;34.47;15.90;;;;;;;19.07;nan;97177.06;3591947;39;20843;-74
2021/07/17 11:31:50;;;;;;;36.70;17.57;;;;;;;19.30;nan;97166.91;3592121;39;20776;-71
2021/07/17 11:34:45;;;;;;;33.60;17.90;;;;;;;19.66;nan;97161.72;3592179;39;20883;-72
2021/07/17 11:37:20;;;;;;;29.77;16.97;;;;;;;19.75;nan;97167.97;3592432;39;20935;-71
2021/07/17 11:39:49;;;;;;;31.97;17.80;;;;;;;19.78;nan;97164.16;3591337;39;20458;-71
2021/07/17 11:42:21;;;;;;;30.17;17.83;;;;;;;19.80;nan;97168.38;3590970;39;20895;-75
2021/07/17 11:44:51;;;;;;;29.43;15.10;;;;;;;19.72;nan;97165.63;3581944;39;20723;-72